createdAt,value
2022-11-30T00:02:35.002Z,67.57
2022-11-30T00:10:09.891Z,63.45
2022-11-30T00:17:45.492Z,68.95
2022-11-30T00:25:19.345Z,73.72
2022-11-30T00:32:58.028Z,72.87
2022-11-30T00:40:31.766Z,80.75
2022-11-30T00:48:07.072Z,71.63
2022-11-30T00:55:40.863Z,74.90
2022-11-30T01:03:16.349Z,73.83
2022-11-30T01:10:53.774Z,72.75
2022-11-30T01:18:28.925Z,72.38
2022-11-30T01:26:02.768Z,74.03
2022-11-30T01:33:37.995Z,76.53
2022-11-30T01:41:14.654Z,67.68
2022-11-30T01:48:56.479Z,69.63
2022-11-30T01:56:30.305Z,73.45
2022-11-30T02:04:11.070Z,71.87
2022-11-30T02:11:45.240Z,71.03
2022-11-30T02:19:55.637Z,81.53
2022-11-30T02:27:46.172Z,70.55
2022-11-30T02:35:27.064Z,75.85
2022-11-30T02:43:03.340Z,74.72
2022-11-30T02:50:42.055Z,75.55
2022-11-30T02:58:17.977Z,78.68
2022-11-30T03:05:53.402Z,75.57
2022-11-30T03:13:27.362Z,79.35
2022-11-30T03:21:05.582Z,73.93
2022-11-30T03:28:39.551Z,71.68
2022-11-30T03:36:16.712Z,77.33
2022-11-30T03:43:50.651Z,79.85
2022-11-30T03:51:25.865Z,75.97
2022-11-30T03:58:59.836Z,80.57
2022-11-30T04:06:35.369Z,79.20
2022-11-30T04:14:10.567Z,70.20
2022-11-30T04:21:45.727Z,75.30
2022-11-30T04:29:19.510Z,73.15
2022-11-30T04:37:00.092Z,82.37
2022-11-30T04:44:34.277Z,77.40
2022-11-30T04:52:09.440Z,71.60
2022-11-30T04:59:43.461Z,71.20
2022-11-30T05:07:18.776Z,72.67
2022-11-30T05:14:52.701Z,75.55
2022-11-30T05:22:27.877Z,73.67
2022-11-30T05:30:01.615Z,80.85
2022-11-30T05:37:36.910Z,76.57
2022-11-30T05:45:12.260Z,78.90
2022-11-30T05:52:47.705Z,76.55
2022-11-30T06:00:22.997Z,73.60
2022-11-30T06:08:00.555Z,79.60
2022-11-30T06:15:34.487Z,73.47
2022-11-30T06:23:09.737Z,80.23
2022-11-30T06:30:43.541Z,71.40
2022-11-30T06:38:19.267Z,66.43
2022-11-30T06:45:53.145Z,74.53
2022-11-30T06:53:28.394Z,73.70
2022-11-30T07:01:02.226Z,79.22
2022-11-30T07:08:38.188Z,75.60
2022-11-30T07:16:13.147Z,66.15
2022-11-30T07:24:05.669Z,68.15
2022-11-30T07:31:40.320Z,77.35
2022-11-30T07:39:16.952Z,72.38
2022-11-30T07:46:50.923Z,72.97
2022-11-30T07:54:26.219Z,75.53
2022-11-30T08:02:00.670Z,67.43
2022-11-30T08:17:10.670Z,65.27
2022-11-30T08:24:46.033Z,69.43
2022-11-30T08:32:20.177Z,66.75
2022-11-30T08:39:55.579Z,68.07
2022-11-30T08:47:30.748Z,62.65
2022-11-30T08:55:06.728Z,69.25
2022-11-30T09:02:40.500Z,65.38
2022-11-30T09:10:15.813Z,62.93
2022-11-30T09:17:49.652Z,58.35
2022-11-30T09:25:24.869Z,65.30
2022-11-30T09:33:00.973Z,56.15
2022-11-30T09:40:37.983Z,50.95
2022-11-30T09:48:27.993Z,56.55
2022-11-30T09:56:04.275Z,55.20
2022-11-30T10:03:38.517Z,59.38
2022-11-30T10:11:29.854Z,64.03
2022-11-30T10:19:14.474Z,56.88
2022-11-30T10:26:55.202Z,59.00
2022-11-30T10:34:34.588Z,55.42
2022-11-30T10:42:14.117Z,57.42
2022-11-30T10:49:50.744Z,60.63
2022-11-30T10:57:31.428Z,60.58
2022-11-30T11:05:21.118Z,62.58
2022-11-30T11:12:57.191Z,58.30
2022-11-30T11:20:34.493Z,57.63
2022-11-30T11:28:15.755Z,52.60
2022-11-30T11:35:51.027Z,58.50
2022-11-30T11:43:29.715Z,60.83
2022-11-30T11:51:07.768Z,55.55
2022-11-30T11:58:48.959Z,57.25
2022-11-30T12:06:24.760Z,61.58
2022-11-30T12:14:01.694Z,66.38
2022-11-30T12:21:50.830Z,60.00
2022-11-30T12:29:35.805Z,62.13
2022-11-30T12:37:20.164Z,62.97
2022-11-30T12:45:05.146Z,60.80
2022-11-30T13:00:22.351Z,64.65
2022-11-30T13:08:03.339Z,67.20
2022-11-30T13:15:41.022Z,71.32
2022-11-30T13:23:19.846Z,77.18
2022-11-30T13:31:01.278Z,77.97
2022-11-30T13:38:37.547Z,72.95
2022-11-30T13:46:19.976Z,87.93
2022-11-30T13:54:32.393Z,70.13
2022-11-30T14:02:58.977Z,74.93
2022-11-30T14:10:35.944Z,78.93
2022-11-30T14:18:21.908Z,77.45
2022-11-30T14:26:06.260Z,81.55
2022-11-30T14:33:50.382Z,81.07
2022-11-30T14:41:28.334Z,87.82
2022-11-30T14:49:08.300Z,81.80
2022-11-30T14:56:48.181Z,89.47
2022-11-30T15:04:22.539Z,94.65
2022-11-30T15:11:58.997Z,93.63
2022-11-30T15:19:34.586Z,96.20
2022-11-30T15:27:15.438Z,98.68
2022-11-30T15:34:56.043Z,95.57
2022-11-30T15:42:39.875Z,96.38
2022-11-30T15:50:47.033Z,99.78
2022-11-30T15:58:39.980Z,91.57
2022-11-30T16:06:20.502Z,102.90
2022-11-30T16:13:55.793Z,107.68
2022-11-30T16:21:29.626Z,101.22
2022-11-30T16:29:05.238Z,97.77
2022-11-30T16:36:39.525Z,97.75
2022-11-30T16:44:15.867Z,105.53
2022-11-30T16:51:50.650Z,97.97
2022-11-30T16:59:27.420Z,98.95
2022-11-30T17:07:03.052Z,103.43
2022-11-30T17:14:38.460Z,104.10
2022-11-30T17:22:12.275Z,103.22
2022-11-30T17:29:47.557Z,99.20
2022-11-30T17:37:23.054Z,99.07
2022-11-30T17:44:58.436Z,99.88
2022-11-30T17:52:32.725Z,94.75
2022-11-30T18:00:09.794Z,99.60
2022-11-30T18:07:43.917Z,98.85
2022-11-30T18:15:19.312Z,103.03
2022-11-30T18:22:53.568Z,100.00
2022-11-30T18:30:29.309Z,101.10
2022-11-30T18:38:03.242Z,101.07
2022-11-30T18:45:39.107Z,84.68
2022-11-30T18:53:18.097Z,103.78
2022-11-30T19:00:53.673Z,95.40
2022-11-30T19:08:27.626Z,92.25
2022-11-30T19:16:07.681Z,94.82
2022-11-30T19:23:42.320Z,86.57
2022-11-30T19:31:19.104Z,88.78
2022-11-30T19:38:53.921Z,92.22
2022-11-30T19:46:30.524Z,97.13
2022-11-30T19:54:04.410Z,93.85
2022-11-30T20:01:39.648Z,94.13
2022-11-30T20:09:13.546Z,95.95
2022-11-30T20:16:50.011Z,85.17
2022-11-30T20:24:23.904Z,95.30
2022-11-30T20:31:59.272Z,90.93
2022-11-30T20:39:33.235Z,88.75
2022-11-30T20:47:08.618Z,88.35
2022-11-30T20:54:43.083Z,78.80
2022-11-30T21:02:18.555Z,90.25
2022-11-30T21:09:52.573Z,92.63
2022-11-30T21:17:28.105Z,95.78
2022-11-30T21:25:01.777Z,95.72
2022-11-30T21:32:37.073Z,97.53
2022-11-30T21:40:12.031Z,96.75
2022-11-30T21:47:47.195Z,84.85
2022-11-30T21:55:21.736Z,89.82
2022-11-30T22:02:57.428Z,84.22
2022-11-30T22:10:31.684Z,90.68
2022-11-30T22:18:07.047Z,78.40
2022-11-30T22:25:41.021Z,72.20
2022-11-30T22:33:21.443Z,87.40
2022-11-30T22:40:55.954Z,87.15
2022-11-30T22:48:32.337Z,85.93
2022-11-30T22:56:08.978Z,80.90
2022-11-30T23:03:45.516Z,81.38
2022-11-30T23:11:22.255Z,76.22
2022-11-30T23:18:58.178Z,88.63
2022-11-30T23:26:34.285Z,87.90
2022-11-30T23:34:11.653Z,85.28
2022-11-30T23:41:45.794Z,81.38
2022-11-30T23:49:21.204Z,86.93
2022-11-30T23:56:55.259Z,84.63
